sensor_id;sensor_type;location;lat;lon;timestamp;temperature;humidity
4399;DHT22;2213;49.720;7.296;2023-04-03T00:02:13;4.80;99.90
4399;DHT22;2213;49.720;7.296;2023-04-03T00:04:45;4.80;99.90
4399;DHT22;2213;49.720;7.296;2023-04-03T00:07:15;4.90;99.90
4399;DHT22;2213;49.720;7.296;2023-04-03T00:09:44;4.80;99.90
4399;DHT22;2213;49.720;7.296;2023-04-03T00:12:16;4.80;99.90
4399;DHT22;2213;49.720;7.296;2023-04-03T00:14:46;4.80;99.90
4399;DHT22;2213;49.720;7.296;2023-04-03T00:17:16;4.80;99.90
4399;DHT22;2213;49.720;7.296;2023-04-03T00:19:46;4.70;99.90
4399;DHT22;2213;49.720;7.296;2023-04-03T00:22:16;4.70;99.90
4399;DHT22;2213;49.720;7.296;2023-04-03T00:24:46;4.70;99.90
4399;DHT22;2213;49.720;7.296;2023-04-03T00:27:17;4.70;99.90
4399;DHT22;2213;49.720;7.296;2023-04-03T00:29:48;4.70;99.90
4399;DHT22;2213;49.720;7.296;2023-04-03T00:32:19;4.80;99.90
4399;DHT22;2213;49.720;7.296;2023-04-03T00:34:48;4.70;99.90
4399;DHT22;2213;49.720;7.296;2023-04-03T00:37:18;4.70;99.90
4399;DHT22;2213;49.720;7.296;2023-04-03T00:39:48;4.70;99.90
4399;DHT22;2213;49.720;7.296;2023-04-03T00:42:19;4.70;99.90
4399;DHT22;2213;49.720;7.296;2023-04-03T00:45:25;4.80;99.90
4399;DHT22;2213;49.720;7.296;2023-04-03T00:47:57;4.80;99.90
4399;DHT22;2213;49.720;7.296;2023-04-03T00:50:29;4.70;99.90
4399;DHT22;2213;49.720;7.296;2023-04-03T00:52:59;4.70;99.90
4399;DHT22;2213;49.720;7.296;2023-04-03T00:55:30;4.70;99.90
4399;DHT22;2213;49.720;7.296;2023-04-03T00:58:02;4.70;99.90
4399;DHT22;2213;49.720;7.296;2023-04-03T01:00:33;4.70;99.90
4399;DHT22;2213;49.720;7.296;2023-04-03T01:03:04;4.70;99.90
4399;DHT22;2213;49.720;7.296;2023-04-03T01:05:35;4.60;99.90
4399;DHT22;2213;49.720;7.296;2023-04-03T01:08:05;4.70;99.90
4399;DHT22;2213;49.720;7.296;2023-04-03T01:10:36;4.60;99.90
4399;DHT22;2213;49.720;7.296;2023-04-03T01:13:21;4.60;99.90
4399;DHT22;2213;49.720;7.296;2023-04-03T01:15:53;4.50;99.90
4399;DHT22;2213;49.720;7.296;2023-04-03T01:18:23;4.50;99.90
4399;DHT22;2213;49.720;7.296;2023-04-03T01:24:26;4.50;99.90
4399;DHT22;2213;49.720;7.296;2023-04-03T01:27:04;4.50;99.90
4399;DHT22;2213;49.720;7.296;2023-04-03T01:29:37;4.50;99.90
4399;DHT22;2213;49.720;7.296;2023-04-03T01:32:09;4.50;99.90
4399;DHT22;2213;49.720;7.296;2023-04-03T01:34:39;4.50;99.90
4399;DHT22;2213;49.720;7.296;2023-04-03T01:37:10;4.40;99.90
4399;DHT22;2213;49.720;7.296;2023-04-03T01:39:40;4.40;99.90
4399;DHT22;2213;49.720;7.296;2023-04-03T01:42:10;4.40;99.90
4399;DHT22;2213;49.720;7.296;2023-04-03T01:44:41;4.30;99.90
4399;DHT22;2213;49.720;7.296;2023-04-03T01:47:11;4.30;99.90
4399;DHT22;2213;49.720;7.296;2023-04-03T01:49:40;4.30;99.90
4399;DHT22;2213;49.720;7.296;2023-04-03T01:52:11;4.30;99.90
4399;DHT22;2213;49.720;7.296;2023-04-03T01:54:41;4.20;99.90
4399;DHT22;2213;49.720;7.296;2023-04-03T01:57:12;4.20;99.90
4399;DHT22;2213;49.720;7.296;2023-04-03T01:59:43;4.10;99.90
4399;DHT22;2213;49.720;7.296;2023-04-03T02:02:14;4.10;99.90
4399;DHT22;2213;49.720;7.296;2023-04-03T02:04:43;4.10;99.90
4399;DHT22;2213;49.720;7.296;2023-04-03T02:07:12;4.10;99.90
4399;DHT22;2213;49.720;7.296;2023-04-03T02:09:43;4.10;99.90
4399;DHT22;2213;49.720;7.296;2023-04-03T02:12:14;4.10;99.90
4399;DHT22;2213;49.720;7.296;2023-04-03T02:14:43;4.00;99.90
4399;DHT22;2213;49.720;7.296;2023-04-03T02:17:14;3.90;99.90
4399;DHT22;2213;49.720;7.296;2023-04-03T02:19:44;3.90;99.90
4399;DHT22;2213;49.720;7.296;2023-04-03T02:22:12;3.90;99.90
4399;DHT22;2213;49.720;7.296;2023-04-03T02:24:42;3.90;99.90
4399;DHT22;2213;49.720;7.296;2023-04-03T02:27:13;3.90;99.90
4399;DHT22;2213;49.720;7.296;2023-04-03T02:29:43;3.80;99.90
4399;DHT22;2213;49.720;7.296;2023-04-03T02:32:14;3.80;99.90
4399;DHT22;2213;49.720;7.296;2023-04-03T02:34:45;3.80;99.90
4399;DHT22;2213;49.720;7.296;2023-04-03T02:37:15;3.80;99.90
4399;DHT22;2213;49.720;7.296;2023-04-03T02:39:45;3.70;99.90
4399;DHT22;2213;49.720;7.296;2023-04-03T02:42:14;3.70;99.90
4399;DHT22;2213;49.720;7.296;2023-04-03T02:44:46;3.70;99.90
4399;DHT22;2213;49.720;7.296;2023-04-03T02:47:17;3.60;99.90
4399;DHT22;2213;49.720;7.296;2023-04-03T02:49:47;3.60;99.90
4399;DHT22;2213;49.720;7.296;2023-04-03T02:52:18;3.60;99.90
4399;DHT22;2213;49.720;7.296;2023-04-03T02:54:48;3.50;99.90
4399;DHT22;2213;49.720;7.296;2023-04-03T02:57:18;3.40;99.90
4399;DHT22;2213;49.720;7.296;2023-04-03T02:59:48;3.50;99.90
4399;DHT22;2213;49.720;7.296;2023-04-03T03:02:19;3.40;99.90
4399;DHT22;2213;49.720;7.296;2023-04-03T03:04:50;3.30;99.90
4399;DHT22;2213;49.720;7.296;2023-04-03T03:07:20;3.30;99.90
4399;DHT22;2213;49.720;7.296;2023-04-03T03:09:51;3.30;99.90
4399;DHT22;2213;49.720;7.296;2023-04-03T03:12:21;3.30;99.90
4399;DHT22;2213;49.720;7.296;2023-04-03T03:14:52;3.20;99.90
4399;DHT22;2213;49.720;7.296;2023-04-03T03:17:24;3.20;99.90
4399;DHT22;2213;49.720;7.296;2023-04-03T03:19:54;3.10;99.90
4399;DHT22;2213;49.720;7.296;2023-04-03T03:22:24;3.10;99.90
4399;DHT22;2213;49.720;7.296;2023-04-03T03:24:58;3.10;99.90
4399;DHT22;2213;49.720;7.296;2023-04-03T03:27:28;3.10;99.90
4399;DHT22;2213;49.720;7.296;2023-04-03T03:29:57;3.10;99.90
4399;DHT22;2213;49.720;7.296;2023-04-03T03:32:29;3.00;99.90
4399;DHT22;2213;49.720;7.296;2023-04-03T03:34:58;3.00;99.90
4399;DHT22;2213;49.720;7.296;2023-04-03T03:37:28;2.90;99.90
4399;DHT22;2213;49.720;7.296;2023-04-03T03:39:57;2.90;99.90
4399;DHT22;2213;49.720;7.296;2023-04-03T03:42:27;2.90;99.90
4399;DHT22;2213;49.720;7.296;2023-04-03T03:44:58;2.90;99.90
4399;DHT22;2213;49.720;7.296;2023-04-03T03:47:29;2.80;99.90
4399;DHT22;2213;49.720;7.296;2023-04-03T03:49:59;2.80;99.90
4399;DHT22;2213;49.720;7.296;2023-04-03T03:52:28;2.80;99.90
4399;DHT22;2213;49.720;7.296;2023-04-03T03:54:58;2.80;99.90
4399;DHT22;2213;49.720;7.296;2023-04-03T03:57:28;2.70;99.90
4399;DHT22;2213;49.720;7.296;2023-04-03T03:59:59;2.70;99.90
4399;DHT22;2213;49.720;7.296;2023-04-03T04:02:30;2.80;99.90
4399;DHT22;2213;49.720;7.296;2023-04-03T04:05:00;2.70;99.90
4399;DHT22;2213;49.720;7.296;2023-04-03T04:07:30;2.70;99.90
4399;DHT22;2213;49.720;7.296;2023-04-03T04:10:01;2.60;99.90
4399;DHT22;2213;49.720;7.296;2023-04-03T04:12:31;2.60;99.90
4399;DHT22;2213;49.720;7.296;2023-04-03T04:15:03;2.60;99.90
4399;DHT22;2213;49.720;7.296;2023-04-03T04:17:35;2.60;99.90
4399;DHT22;2213;49.720;7.296;2023-04-03T04:20:07;2.50;99.90
4399;DHT22;2213;49.720;7.296;2023-04-03T04:22:39;2.50;99.90
4399;DHT22;2213;49.720;7.296;2023-04-03T04:25:16;2.50;99.90
4399;DHT22;2213;49.720;7.296;2023-04-03T04:27:47;2.50;99.90
4399;DHT22;2213;49.720;7.296;2023-04-03T04:30:17;2.40;99.90
4399;DHT22;2213;49.720;7.296;2023-04-03T04:32:48;2.40;99.90
4399;DHT22;2213;49.720;7.296;2023-04-03T04:35:18;2.40;99.90
4399;DHT22;2213;49.720;7.296;2023-04-03T04:37:47;2.40;99.90
4399;DHT22;2213;49.720;7.296;2023-04-03T04:40:17;2.40;99.90
4399;DHT22;2213;49.720;7.296;2023-04-03T04:42:46;2.40;99.90
4399;DHT22;2213;49.720;7.296;2023-04-03T04:45:17;2.30;99.90
4399;DHT22;2213;49.720;7.296;2023-04-03T04:47:49;2.30;99.90
4399;DHT22;2213;49.720;7.296;2023-04-03T04:50:20;2.30;99.90
4399;DHT22;2213;49.720;7.296;2023-04-03T04:52:50;2.40;99.90
4399;DHT22;2213;49.720;7.296;2023-04-03T04:55:21;2.30;99.90
4399;DHT22;2213;49.720;7.296;2023-04-03T04:57:51;2.20;99.90
4399;DHT22;2213;49.720;7.296;2023-04-03T05:00:21;2.20;99.90
4399;DHT22;2213;49.720;7.296;2023-04-03T05:02:52;2.30;99.90
4399;DHT22;2213;49.720;7.296;2023-04-03T05:05:23;2.20;99.90
4399;DHT22;2213;49.720;7.296;2023-04-03T05:07:54;2.20;99.90
4399;DHT22;2213;49.720;7.296;2023-04-03T05:10:25;2.20;99.90
4399;DHT22;2213;49.720;7.296;2023-04-03T05:12:55;2.20;99.90
4399;DHT22;2213;49.720;7.296;2023-04-03T05:15:25;2.20;99.90
4399;DHT22;2213;49.720;7.296;2023-04-03T05:17:56;2.10;99.90
4399;DHT22;2213;49.720;7.296;2023-04-03T05:20:26;2.10;99.90
4399;DHT22;2213;49.720;7.296;2023-04-03T05:22:57;2.10;99.90
4399;DHT22;2213;49.720;7.296;2023-04-03T05:25:26;2.20;99.90
4399;DHT22;2213;49.720;7.296;2023-04-03T05:27:56;2.10;99.90
4399;DHT22;2213;49.720;7.296;2023-04-03T05:30:27;2.20;99.90
4399;DHT22;2213;49.720;7.296;2023-04-03T05:32:59;2.10;99.90
4399;DHT22;2213;49.720;7.296;2023-04-03T05:35:30;2.10;99.90
4399;DHT22;2213;49.720;7.296;2023-04-03T05:38:01;2.10;99.90
4399;DHT22;2213;49.720;7.296;2023-04-03T05:40:31;2.10;99.90
4399;DHT22;2213;49.720;7.296;2023-04-03T05:43:01;2.10;99.90
4399;DHT22;2213;49.720;7.296;2023-04-03T05:45:30;2.10;99.90
4399;DHT22;2213;49.720;7.296;2023-04-03T05:48:02;2.10;99.90
4399;DHT22;2213;49.720;7.296;2023-04-03T05:50:34;2.10;99.90
4399;DHT22;2213;49.720;7.296;2023-04-03T05:53:04;2.00;99.90
4399;DHT22;2213;49.720;7.296;2023-04-03T05:55:33;2.10;99.90
4399;DHT22;2213;49.720;7.296;2023-04-03T05:58:03;2.10;99.90
4399;DHT22;2213;49.720;7.296;2023-04-03T06:00:36;2.10;99.90
4399;DHT22;2213;49.720;7.296;2023-04-03T06:03:08;2.10;99.90
4399;DHT22;2213;49.720;7.296;2023-04-03T06:05:38;2.10;99.90
4399;DHT22;2213;49.720;7.296;2023-04-03T06:08:08;2.10;99.90
4399;DHT22;2213;49.720;7.296;2023-04-03T06:10:40;2.10;99.90
4399;DHT22;2213;49.720;7.296;2023-04-03T06:13:10;2.10;99.90
4399;DHT22;2213;49.720;7.296;2023-04-03T06:15:39;2.20;99.90
4399;DHT22;2213;49.720;7.296;2023-04-03T06:18:12;2.20;99.90
4399;DHT22;2213;49.720;7.296;2023-04-03T06:20:41;2.20;99.90
4399;DHT22;2213;49.720;7.296;2023-04-03T06:23:11;2.20;99.90
4399;DHT22;2213;49.720;7.296;2023-04-03T06:25:41;2.20;99.90
4399;DHT22;2213;49.720;7.296;2023-04-03T06:28:10;2.30;99.90
4399;DHT22;2213;49.720;7.296;2023-04-03T06:30:41;2.30;99.90
4399;DHT22;2213;49.720;7.296;2023-04-03T06:33:13;2.40;99.90
4399;DHT22;2213;49.720;7.296;2023-04-03T06:35:44;2.40;99.90
4399;DHT22;2213;49.720;7.296;2023-04-03T06:38:15;2.40;99.90
4399;DHT22;2213;49.720;7.296;2023-04-03T06:40:46;2.50;99.90
4399;DHT22;2213;49.720;7.296;2023-04-03T06:43:16;2.50;99.90
4399;DHT22;2213;49.720;7.296;2023-04-03T06:45:47;2.60;99.90
4399;DHT22;2213;49.720;7.296;2023-04-03T06:48:17;2.70;99.90
4399;DHT22;2213;49.720;7.296;2023-04-03T06:50:48;2.70;99.90
4399;DHT22;2213;49.720;7.296;2023-04-03T06:53:17;2.80;99.90
4399;DHT22;2213;49.720;7.296;2023-04-03T06:55:47;2.80;99.90
4399;DHT22;2213;49.720;7.296;2023-04-03T06:58:18;2.90;99.90
4399;DHT22;2213;49.720;7.296;2023-04-03T07:00:49;2.90;99.90
4399;DHT22;2213;49.720;7.296;2023-04-03T07:03:21;3.00;99.90
4399;DHT22;2213;49.720;7.296;2023-04-03T07:05:52;3.20;99.90
4399;DHT22;2213;49.720;7.296;2023-04-03T07:08:21;3.20;99.90
4399;DHT22;2213;49.720;7.296;2023-04-03T07:10:51;3.20;99.90
4399;DHT22;2213;49.720;7.296;2023-04-03T07:13:20;3.30;99.90
4399;DHT22;2213;49.720;7.296;2023-04-03T07:15:51;3.40;99.90
4399;DHT22;2213;49.720;7.296;2023-04-03T07:18:23;3.40;99.90
4399;DHT22;2213;49.720;7.296;2023-04-03T07:20:54;3.50;99.90
4399;DHT22;2213;49.720;7.296;2023-04-03T07:23:24;3.50;99.90
4399;DHT22;2213;49.720;7.296;2023-04-03T07:25:54;3.50;99.90
4399;DHT22;2213;49.720;7.296;2023-04-03T07:28:23;3.60;99.90
4399;DHT22;2213;49.720;7.296;2023-04-03T07:30:59;3.60;99.90
4399;DHT22;2213;49.720;7.296;2023-04-03T07:33:31;3.80;99.90
4399;DHT22;2213;49.720;7.296;2023-04-03T07:36:03;3.80;99.90
4399;DHT22;2213;49.720;7.296;2023-04-03T07:38:34;3.90;99.90
4399;DHT22;2213;49.720;7.296;2023-04-03T07:41:05;4.00;99.90
4399;DHT22;2213;49.720;7.296;2023-04-03T07:43:35;4.00;99.90
4399;DHT22;2213;49.720;7.296;2023-04-03T07:46:05;4.00;99.90
4399;DHT22;2213;49.720;7.296;2023-04-03T07:48:36;4.10;99.90
4399;DHT22;2213;49.720;7.296;2023-04-03T07:51:05;4.00;99.90
4399;DHT22;2213;49.720;7.296;2023-04-03T07:53:35;4.10;99.90
4399;DHT22;2213;49.720;7.296;2023-04-03T07:56:06;4.20;99.90
4399;DHT22;2213;49.720;7.296;2023-04-03T07:58:36;4.20;99.90
4399;DHT22;2213;49.720;7.296;2023-04-03T08:01:06;4.20;99.90
4399;DHT22;2213;49.720;7.296;2023-04-03T08:03:38;4.30;99.90
4399;DHT22;2213;49.720;7.296;2023-04-03T08:06:09;4.30;99.90
4399;DHT22;2213;49.720;7.296;2023-04-03T08:08:43;4.30;99.90
4399;DHT22;2213;49.720;7.296;2023-04-03T08:11:14;4.20;99.90
4399;DHT22;2213;49.720;7.296;2023-04-03T08:13:44;4.20;99.90
4399;DHT22;2213;49.720;7.296;2023-04-03T08:16:17;4.20;99.90
4399;DHT22;2213;49.720;7.296;2023-04-03T08:18:51;4.30;99.90
4399;DHT22;2213;49.720;7.296;2023-04-03T08:21:20;4.30;99.90
4399;DHT22;2213;49.720;7.296;2023-04-03T08:23:50;4.30;99.90
4399;DHT22;2213;49.720;7.296;2023-04-03T08:26:20;4.40;99.90
4399;DHT22;2213;49.720;7.296;2023-04-03T08:28:50;4.40;99.90
4399;DHT22;2213;49.720;7.296;2023-04-03T08:31:20;4.30;99.90
4399;DHT22;2213;49.720;7.296;2023-04-03T08:33:51;4.40;99.90
4399;DHT22;2213;49.720;7.296;2023-04-03T08:36:22;4.40;99.90
4399;DHT22;2213;49.720;7.296;2023-04-03T08:38:55;4.50;99.90
4399;DHT22;2213;49.720;7.296;2023-04-03T08:41:29;4.60;99.90
4399;DHT22;2213;49.720;7.296;2023-04-03T08:44:15;4.60;99.90
4399;DHT22;2213;49.720;7.296;2023-04-03T08:47:09;4.60;99.90
4399;DHT22;2213;49.720;7.296;2023-04-03T08:49:51;4.60;99.90
4399;DHT22;2213;49.720;7.296;2023-04-03T08:52:27;4.70;99.90
4399;DHT22;2213;49.720;7.296;2023-04-03T08:55:05;4.70;99.90
4399;DHT22;2213;49.720;7.296;2023-04-03T08:57:40;4.90;99.90
4399;DHT22;2213;49.720;7.296;2023-04-03T09:00:19;4.80;99.90
4399;DHT22;2213;49.720;7.296;2023-04-03T09:02:54;4.80;99.90
4399;DHT22;2213;49.720;7.296;2023-04-03T09:05:35;4.90;99.90
4399;DHT22;2213;49.720;7.296;2023-04-03T09:08:21;4.90;99.90
4399;DHT22;2213;49.720;7.296;2023-04-03T09:11:03;5.00;99.90
4399;DHT22;2213;49.720;7.296;2023-04-03T09:13:45;5.20;99.90
4399;DHT22;2213;49.720;7.296;2023-04-03T09:16:28;5.20;99.90
4399;DHT22;2213;49.720;7.296;2023-04-03T09:19:13;5.40;99.90
4399;DHT22;2213;49.720;7.296;2023-04-03T09:21:50;5.40;99.90
4399;DHT22;2213;49.720;7.296;2023-04-03T09:24:23;5.40;99.90
4399;DHT22;2213;49.720;7.296;2023-04-03T09:26:56;5.50;99.90
4399;DHT22;2213;49.720;7.296;2023-04-03T09:29:30;5.40;99.90
4399;DHT22;2213;49.720;7.296;2023-04-03T09:32:02;5.60;99.90
4399;DHT22;2213;49.720;7.296;2023-04-03T09:34:47;5.60;99.90
4399;DHT22;2213;49.720;7.296;2023-04-03T09:37:43;5.50;99.90
4399;DHT22;2213;49.720;7.296;2023-04-03T09:40:37;5.60;99.90
4399;DHT22;2213;49.720;7.296;2023-04-03T09:43:26;5.80;99.90
4399;DHT22;2213;49.720;7.296;2023-04-03T09:46:17;5.90;99.90
4399;DHT22;2213;49.720;7.296;2023-04-03T09:48:57;6.00;99.90
4399;DHT22;2213;49.720;7.296;2023-04-03T09:51:36;6.10;99.90
4399;DHT22;2213;49.720;7.296;2023-04-03T09:54:31;6.10;99.90
4399;DHT22;2213;49.720;7.296;2023-04-03T09:57:08;6.10;99.90
4399;DHT22;2213;49.720;7.296;2023-04-03T09:59:47;6.10;99.90
4399;DHT22;2213;49.720;7.296;2023-04-03T10:02:51;6.00;99.90
4399;DHT22;2213;49.720;7.296;2023-04-03T10:05:49;6.00;99.90
4399;DHT22;2213;49.720;7.296;2023-04-03T10:08:25;5.90;99.90
4399;DHT22;2213;49.720;7.296;2023-04-03T10:11:16;5.90;99.90
4399;DHT22;2213;49.720;7.296;2023-04-03T10:14:15;5.90;99.90
4399;DHT22;2213;49.720;7.296;2023-04-03T10:16:50;5.90;99.90
4399;DHT22;2213;49.720;7.296;2023-04-03T10:19:34;5.90;99.90
4399;DHT22;2213;49.720;7.296;2023-04-03T10:22:19;5.90;99.90
4399;DHT22;2213;49.720;7.296;2023-04-03T10:25:02;5.80;99.90
4399;DHT22;2213;49.720;7.296;2023-04-03T10:27:51;5.90;99.90
4399;DHT22;2213;49.720;7.296;2023-04-03T10:30:32;5.80;99.90
4399;DHT22;2213;49.720;7.296;2023-04-03T10:33:25;5.90;99.90
4399;DHT22;2213;49.720;7.296;2023-04-03T10:36:19;6.00;99.90
4399;DHT22;2213;49.720;7.296;2023-04-03T10:39:06;6.00;99.90
4399;DHT22;2213;49.720;7.296;2023-04-03T10:41:52;6.10;99.90
4399;DHT22;2213;49.720;7.296;2023-04-03T10:44:56;6.10;99.80
4399;DHT22;2213;49.720;7.296;2023-04-03T10:47:49;6.10;99.90
4399;DHT22;2213;49.720;7.296;2023-04-03T10:50:38;6.10;99.90
4399;DHT22;2213;49.720;7.296;2023-04-03T10:53:23;6.10;99.90
4399;DHT22;2213;49.720;7.296;2023-04-03T10:56:06;6.20;99.90
4399;DHT22;2213;49.720;7.296;2023-04-03T10:58:43;6.30;99.90
4399;DHT22;2213;49.720;7.296;2023-04-03T11:01:20;6.30;99.90
4399;DHT22;2213;49.720;7.296;2023-04-03T11:03:56;6.40;99.90
4399;DHT22;2213;49.720;7.296;2023-04-03T11:06:34;6.50;99.90
4399;DHT22;2213;49.720;7.296;2023-04-03T11:09:18;6.60;99.90
4399;DHT22;2213;49.720;7.296;2023-04-03T11:11:55;6.60;99.90
4399;DHT22;2213;49.720;7.296;2023-04-03T11:14:31;6.60;99.50
4399;DHT22;2213;49.720;7.296;2023-04-03T11:17:14;6.50;99.90
4399;DHT22;2213;49.720;7.296;2023-04-03T11:19:57;6.40;99.80
4399;DHT22;2213;49.720;7.296;2023-04-03T11:22:35;6.50;99.30
4399;DHT22;2213;49.720;7.296;2023-04-03T11:25:17;6.60;99.90
4399;DHT22;2213;49.720;7.296;2023-04-03T11:27:55;6.60;99.90
4399;DHT22;2213;49.720;7.296;2023-04-03T11:30:32;6.60;99.90
4399;DHT22;2213;49.720;7.296;2023-04-03T11:33:32;6.60;99.90
4399;DHT22;2213;49.720;7.296;2023-04-03T11:36:30;6.70;99.90
4399;DHT22;2213;49.720;7.296;2023-04-03T11:39:10;6.60;99.90
4399;DHT22;2213;49.720;7.296;2023-04-03T11:41:50;6.80;99.70
4399;DHT22;2213;49.720;7.296;2023-04-03T11:44:34;6.80;99.40
4399;DHT22;2213;49.720;7.296;2023-04-03T11:47:07;6.90;99.90
4399;DHT22;2213;49.720;7.296;2023-04-03T11:49:56;7.00;99.80
4399;DHT22;2213;49.720;7.296;2023-04-03T11:52:59;7.00;98.70
4399;DHT22;2213;49.720;7.296;2023-04-03T11:55:53;6.90;98.90
4399;DHT22;2213;49.720;7.296;2023-04-03T11:58:30;6.90;98.50
4399;DHT22;2213;49.720;7.296;2023-04-03T12:01:03;7.00;98.70
4399;DHT22;2213;49.720;7.296;2023-04-03T12:03:57;6.90;99.40
4399;DHT22;2213;49.720;7.296;2023-04-03T12:07:02;7.10;99.50
4399;DHT22;2213;49.720;7.296;2023-04-03T12:10:17;7.10;99.50
4399;DHT22;2213;49.720;7.296;2023-04-03T12:13:00;6.90;98.70
4399;DHT22;2213;49.720;7.296;2023-04-03T12:15:51;7.00;99.40
4399;DHT22;2213;49.720;7.296;2023-04-03T12:18:55;7.10;99.10
4399;DHT22;2213;49.720;7.296;2023-04-03T12:22:11;7.10;99.00
4399;DHT22;2213;49.720;7.296;2023-04-03T12:24:49;7.10;98.90
4399;DHT22;2213;49.720;7.296;2023-04-03T12:27:28;7.10;98.00
4399;DHT22;2213;49.720;7.296;2023-04-03T12:30:36;7.10;99.00
4399;DHT22;2213;49.720;7.296;2023-04-03T12:33:20;7.10;99.50
4399;DHT22;2213;49.720;7.296;2023-04-03T12:36:06;7.20;98.80
4399;DHT22;2213;49.720;7.296;2023-04-03T12:41:54;7.20;99.30
4399;DHT22;2213;49.720;7.296;2023-04-03T12:44:40;7.20;98.20
4399;DHT22;2213;49.720;7.296;2023-04-03T12:47:26;7.20;97.80
4399;DHT22;2213;49.720;7.296;2023-04-03T12:50:02;7.20;98.20
4399;DHT22;2213;49.720;7.296;2023-04-03T12:52:37;7.20;97.90
4399;DHT22;2213;49.720;7.296;2023-04-03T12:55:16;7.30;98.60
4399;DHT22;2213;49.720;7.296;2023-04-03T12:57:47;7.30;98.10
4399;DHT22;2213;49.720;7.296;2023-04-03T13:00:29;7.30;97.70
4399;DHT22;2213;49.720;7.296;2023-04-03T13:03:02;7.30;98.10
4399;DHT22;2213;49.720;7.296;2023-04-03T13:05:34;7.40;98.00
4399;DHT22;2213;49.720;7.296;2023-04-03T13:08:09;7.40;97.90
4399;DHT22;2213;49.720;7.296;2023-04-03T13:10:56;7.30;97.40
4399;DHT22;2213;49.720;7.296;2023-04-03T13:13:30;7.20;97.30
4399;DHT22;2213;49.720;7.296;2023-04-03T13:16:08;7.20;96.90
4399;DHT22;2213;49.720;7.296;2023-04-03T13:18:40;7.10;96.90
4399;DHT22;2213;49.720;7.296;2023-04-03T13:21:15;7.10;97.00
4399;DHT22;2213;49.720;7.296;2023-04-03T13:23:50;7.10;96.80
4399;DHT22;2213;49.720;7.296;2023-04-03T13:26:39;7.00;97.30
4399;DHT22;2213;49.720;7.296;2023-04-03T13:29:22;7.10;97.60
4399;DHT22;2213;49.720;7.296;2023-04-03T13:31:58;7.30;97.00
4399;DHT22;2213;49.720;7.296;2023-04-03T13:34:36;7.30;97.30
4399;DHT22;2213;49.720;7.296;2023-04-03T13:37:20;7.30;97.30
4399;DHT22;2213;49.720;7.296;2023-04-03T13:40:01;7.30;96.80
4399;DHT22;2213;49.720;7.296;2023-04-03T13:42:41;7.30;97.20
4399;DHT22;2213;49.720;7.296;2023-04-03T13:45:20;7.30;96.20
4399;DHT22;2213;49.720;7.296;2023-04-03T13:48:14;7.20;96.20
4399;DHT22;2213;49.720;7.296;2023-04-03T13:50:53;7.20;95.60
4399;DHT22;2213;49.720;7.296;2023-04-03T13:53:26;7.70;95.30
4399;DHT22;2213;49.720;7.296;2023-04-03T13:56:00;7.70;95.40
4399;DHT22;2213;49.720;7.296;2023-04-03T13:58:36;8.00;96.00
4399;DHT22;2213;49.720;7.296;2023-04-03T14:01:14;8.00;96.50
4399;DHT22;2213;49.720;7.296;2023-04-03T14:03:54;8.10;95.00
4399;DHT22;2213;49.720;7.296;2023-04-03T14:06:26;7.90;95.30
4399;DHT22;2213;49.720;7.296;2023-04-03T14:08:56;7.90;95.90
4399;DHT22;2213;49.720;7.296;2023-04-03T14:11:28;7.80;95.30
4399;DHT22;2213;49.720;7.296;2023-04-03T14:14:09;7.80;95.50
4399;DHT22;2213;49.720;7.296;2023-04-03T14:16:47;7.70;94.30
4399;DHT22;2213;49.720;7.296;2023-04-03T14:19:22;7.60;94.50
4399;DHT22;2213;49.720;7.296;2023-04-03T14:21:55;7.70;95.60
4399;DHT22;2213;49.720;7.296;2023-04-03T14:24:24;7.80;95.80
4399;DHT22;2213;49.720;7.296;2023-04-03T14:26:57;7.90;95.30
4399;DHT22;2213;49.720;7.296;2023-04-03T14:29:29;8.10;96.10
4399;DHT22;2213;49.720;7.296;2023-04-03T14:31:59;8.20;94.50
4399;DHT22;2213;49.720;7.296;2023-04-03T14:34:40;8.20;94.10
4399;DHT22;2213;49.720;7.296;2023-04-03T14:37:12;8.20;93.80
4399;DHT22;2213;49.720;7.296;2023-04-03T14:39:44;8.20;94.20
4399;DHT22;2213;49.720;7.296;2023-04-03T14:42:17;8.30;94.50
4399;DHT22;2213;49.720;7.296;2023-04-03T14:44:51;8.50;94.90
4399;DHT22;2213;49.720;7.296;2023-04-03T14:47:23;8.40;94.40
4399;DHT22;2213;49.720;7.296;2023-04-03T14:49:58;8.40;93.80
4399;DHT22;2213;49.720;7.296;2023-04-03T14:52:32;8.40;94.80
4399;DHT22;2213;49.720;7.296;2023-04-03T14:55:05;8.60;93.90
4399;DHT22;2213;49.720;7.296;2023-04-03T14:57:35;8.50;93.10
4399;DHT22;2213;49.720;7.296;2023-04-03T15:00:13;8.50;93.90
4399;DHT22;2213;49.720;7.296;2023-04-03T15:02:46;8.60;94.00
4399;DHT22;2213;49.720;7.296;2023-04-03T15:05:16;8.70;93.90
4399;DHT22;2213;49.720;7.296;2023-04-03T15:07:48;8.80;92.10
4399;DHT22;2213;49.720;7.296;2023-04-03T15:10:22;8.70;91.00
4399;DHT22;2213;49.720;7.296;2023-04-03T15:12:54;8.70;90.90
4399;DHT22;2213;49.720;7.296;2023-04-03T15:15:29;8.80;92.20
4399;DHT22;2213;49.720;7.296;2023-04-03T15:17:59;8.90;92.90
4399;DHT22;2213;49.720;7.296;2023-04-03T15:20:29;8.90;93.10
4399;DHT22;2213;49.720;7.296;2023-04-03T15:23:01;9.00;92.70
4399;DHT22;2213;49.720;7.296;2023-04-03T15:25:32;9.10;92.30
4399;DHT22;2213;49.720;7.296;2023-04-03T15:28:01;9.10;91.70
4399;DHT22;2213;49.720;7.296;2023-04-03T15:30:33;9.20;92.10
4399;DHT22;2213;49.720;7.296;2023-04-03T15:33:07;9.20;91.30
4399;DHT22;2213;49.720;7.296;2023-04-03T15:35:37;9.10;91.20
4399;DHT22;2213;49.720;7.296;2023-04-03T15:38:08;9.10;91.40
4399;DHT22;2213;49.720;7.296;2023-04-03T15:40:38;9.00;90.70
4399;DHT22;2213;49.720;7.296;2023-04-03T15:43:08;9.10;89.60
4399;DHT22;2213;49.720;7.296;2023-04-03T15:45:40;9.10;90.10
4399;DHT22;2213;49.720;7.296;2023-04-03T15:48:12;9.10;90.60
4399;DHT22;2213;49.720;7.296;2023-04-03T15:50:44;9.20;90.50
4399;DHT22;2213;49.720;7.296;2023-04-03T15:53:13;9.10;88.60
4399;DHT22;2213;49.720;7.296;2023-04-03T15:55:44;9.10;89.80
4399;DHT22;2213;49.720;7.296;2023-04-03T15:58:14;9.20;91.00
4399;DHT22;2213;49.720;7.296;2023-04-03T16:00:46;9.20;90.20
4399;DHT22;2213;49.720;7.296;2023-04-03T16:03:17;9.10;89.40
4399;DHT22;2213;49.720;7.296;2023-04-03T16:05:49;9.10;90.10
4399;DHT22;2213;49.720;7.296;2023-04-03T16:08:19;9.00;88.80
4399;DHT22;2213;49.720;7.296;2023-04-03T16:10:50;8.90;89.80
4399;DHT22;2213;49.720;7.296;2023-04-03T16:13:20;8.70;90.00
4399;DHT22;2213;49.720;7.296;2023-04-03T16:15:51;8.60;90.00
4399;DHT22;2213;49.720;7.296;2023-04-03T16:18:21;8.50;90.40
4399;DHT22;2213;49.720;7.296;2023-04-03T16:20:52;8.50;90.30
4399;DHT22;2213;49.720;7.296;2023-04-03T16:23:22;8.40;90.70
4399;DHT22;2213;49.720;7.296;2023-04-03T16:25:52;8.30;90.70
4399;DHT22;2213;49.720;7.296;2023-04-03T16:28:22;8.30;91.20
4399;DHT22;2213;49.720;7.296;2023-04-03T16:30:54;8.30;90.30
4399;DHT22;2213;49.720;7.296;2023-04-03T16:33:27;8.20;89.40
4399;DHT22;2213;49.720;7.296;2023-04-03T16:35:57;8.10;90.20
4399;DHT22;2213;49.720;7.296;2023-04-03T16:38:27;8.10;90.50
4399;DHT22;2213;49.720;7.296;2023-04-03T16:40:57;8.00;90.80
4399;DHT22;2213;49.720;7.296;2023-04-03T16:43:31;7.90;90.00
4399;DHT22;2213;49.720;7.296;2023-04-03T16:46:04;7.90;91.00
4399;DHT22;2213;49.720;7.296;2023-04-03T16:48:33;7.80;90.50
4399;DHT22;2213;49.720;7.296;2023-04-03T16:51:03;7.70;90.70
4399;DHT22;2213;49.720;7.296;2023-04-03T16:53:33;7.60;90.50
4399;DHT22;2213;49.720;7.296;2023-04-03T16:56:04;7.60;90.90
4399;DHT22;2213;49.720;7.296;2023-04-03T16:58:35;7.60;91.40
4399;DHT22;2213;49.720;7.296;2023-04-03T17:01:13;7.50;91.10
4399;DHT22;2213;49.720;7.296;2023-04-03T17:03:44;7.50;91.70
4399;DHT22;2213;49.720;7.296;2023-04-03T17:06:17;7.40;91.00
4399;DHT22;2213;49.720;7.296;2023-04-03T17:08:48;7.40;91.10
4399;DHT22;2213;49.720;7.296;2023-04-03T17:11:19;7.30;90.90
4399;DHT22;2213;49.720;7.296;2023-04-03T17:13:50;7.30;91.50